Aérodrome :
LOGIN :

S'inscrire | Disclaimer

   EN    FR    IT 

 










Légende :    VFR   VFR Marginal   IFR   IFR Intensif   IFR Très Intensif
Visi : 
Plafond : 
>= 8 km
>= 3000ft
5 à 8 km
1000 à 3000 ft
1500m à 5 km
500 à 1000 ft
800 à 1500m
200 à 500 ft
< 800m
< 200 ft
Symboles :   Orages  Brouillard  Fortes neiges  Fortes précipitations  Vent > 20 kt
SIGMETs :   Divers  Orages  Givrage  Turbulence  Onde Orograph.  Cendres Volcan.






- Altitude de l'aérodrome : 600 ft
- Code IATA : VIE


LOWW - Vienna Schwechat

DERNIER METAR :
  • 230750Z 32009KT CAVOK 24/18 Q1019 NOSIG

METARs EXPIRÉS :
  • 230720Z 33008KT 300V360 9999 FEW050 22/17 Q1019 NOSIG
  • 230650Z 34009KT 9999 FEW042 BKN050 21/17 Q1019 NOSIG
  • 230620Z 33010KT 9999 -SHRA FEW016 SCT046 BKN050 FEW050CB 21/18 Q1019 RESHRA NOSIG
  • 230550Z 32011KT 9999 FEW028 BKN040 FEW050TCU 23/17 Q1018 NOSIG
  • 230520Z 32008KT 9999 FEW036 BKN040 23/17 Q1018 NOSIG
  • 230450Z 32010KT CAVOK 23/17 Q1018 NOSIG
  • 230420Z 32010KT 9999 FEW034 BKN050 23/17 Q1018 NOSIG
  • 230350Z 31009KT 9999 FEW032 23/17 Q1018 NOSIG
  • 230320Z 32010KT 9999 FEW050 22/17 Q1017 NOSIG

TAF AMD TAF LOWW
Valide du 23 à 06h jusqu'au 24 à 12h UTC


230609Z 2306/2412 31012KT 9999 FEW050 TX30/2314Z TN20/2404Z
TEMPO 2306/2307 SHRA
PROB40
TEMPO 2403/2408 33015G25KT SHRA
TEMPO 2408/2412 31017G30KT



MET'MAP, la Météo Aéronautique d'un coup d'oeil ! - Copyright ORBIFLY Décembre 2007 - Disclaimer

ORBIFLY MET'MAP TEAM :

Programmation & Développement : Alexandra Zaïnal
Sur une idée originale de : Baudouin d'Aumeries
Soutien technique & logistique : Manuel Goepfert
Assistance : Marc-Olivier Méhu




SOURCES & CREDITS :

   NOAA